KSTK/STK METAR and TAF weather

Enter ICAO airport designator
Station Type Date Time Source
KSTK METAR 2021/04/13 22:15 UTC NOAA

KSTK 132215Z AUTO 15003KT 10SM SCT065 09/M07 A3013 RMK AO2


Station Type Date Time Source
KSTK Decoded METAR 2021/04/13 22:15 UTC NOAA

Station name not available
Apr 13, 2021 - 06:15 PM EDT / 2021.04.13 2215 UTC
Wind: from the SSE (150 degrees) at 3 MPH (3 KT):0
Visibility: 10 mile(s):0
Sky conditions: partly cloudy
Temperature: 48 F (9 C)
Dew Point: 19 F (-7 C)
Relative Humidity: 31%
Pressure (altimeter): 30.13 in. Hg (1020 hPa)
ob: KSTK 132215Z AUTO 15003KT 10SM SCT065 09/M07 A3013 RMK AO2
cycle: 22

Station Type Date Time Source
KSTK TAF UTC NOAA

Error!

Example: see airport list